Time;durP1;ratioP1;P1;durP2;ratioP2;P2;SDS_P1;SDS_P2;PMS_P1;PMS_P2;Temp;Humidity;BMP_temperature;BMP_pressure;BME280_temperature;BME280_humidity;BME280_pressure;Samples;Min_cycle;Max_cycle;Signal;HPM_P1;HPM_P2
2023/12/17 00:01:22;;;;;;;1.17;1.17;;;;;;;3.77;85.36;99540.91;4978637;28;20121;-71
2023/12/17 00:03:50;;;;;;;1.38;1.38;;;;;;;3.76;85.72;99539.22;4971527;28;20039;-71
2023/12/17 00:06:17;;;;;;;1.67;1.67;;;;;;;3.73;85.84;99542.94;4983164;28;20046;-71
2023/12/17 00:08:46;;;;;;;1.20;1.20;;;;;;;3.73;85.85;99540.31;4980596;28;20042;-71
2023/12/17 00:11:13;;;;;;;0.88;0.88;;;;;;;3.73;85.97;99550.84;4978958;28;20380;-71
2023/12/17 00:13:41;;;;;;;0.60;0.60;;;;;;;3.71;86.12;99550.13;4977593;28;20060;-71
2023/12/17 00:16:10;;;;;;;1.05;1.05;;;;;;;3.73;85.94;99542.09;4984675;28;20050;-71
2023/12/17 00:18:37;;;;;;;1.35;1.35;;;;;;;3.69;85.73;99550.22;4974059;28;20125;-72
2023/12/17 00:21:05;;;;;;;1.10;1.10;;;;;;;3.76;85.68;99563.84;4978933;28;20542;-71
2023/12/17 00:23:33;;;;;;;1.08;1.08;;;;;;;3.78;85.39;99566.38;4984105;28;20137;-71
2023/12/17 00:26:00;;;;;;;0.80;0.80;;;;;;;3.68;85.65;99560.88;4984036;28;20047;-73
2023/12/17 00:28:28;;;;;;;1.30;1.30;;;;;;;3.66;85.51;99566.25;4979448;28;20267;-70
2023/12/17 00:30:55;;;;;;;0.85;0.85;;;;;;;3.67;85.33;99556.53;4983332;28;20410;-71
2023/12/17 00:33:24;;;;;;;0.90;0.90;;;;;;;3.68;85.06;99542.38;4970168;28;20086;-72
2023/12/17 00:35:52;;;;;;;1.10;1.10;;;;;;;3.61;85.08;99543.75;4981561;28;20238;-71
2023/12/17 00:38:20;;;;;;;1.05;1.05;;;;;;;3.61;84.76;99556.97;4989700;28;20384;-70
2023/12/17 00:40:47;;;;;;;0.90;0.90;;;;;;;3.60;84.39;99555.25;4990168;28;20046;-70
2023/12/17 00:43:15;;;;;;;1.00;1.00;;;;;;;3.58;84.29;99559.78;4981454;28;20089;-70
2023/12/17 00:45:42;;;;;;;0.98;0.98;;;;;;;3.54;84.30;99560.94;4989387;28;20042;-72
2023/12/17 00:48:10;;;;;;;1.17;1.17;;;;;;;3.50;84.29;99556.81;4977694;28;20556;-71
2023/12/17 00:50:39;;;;;;;0.68;0.68;;;;;;;3.46;84.48;99558.81;4975313;28;20408;-70
2023/12/17 00:53:07;;;;;;;1.02;1.02;;;;;;;3.46;84.27;99552.69;4988268;28;20038;-71
2023/12/17 00:55:34;;;;;;;0.88;0.88;;;;;;;3.44;84.28;99549.28;4974328;28;20045;-71
2023/12/17 00:58:02;;;;;;;1.17;1.17;;;;;;;3.43;83.97;99552.88;4976438;28;20122;-71
2023/12/17 01:00:29;;;;;;;1.13;1.13;;;;;;;3.41;84.09;99554.78;4983274;28;20141;-71
2023/12/17 01:02:57;;;;;;;0.90;0.90;;;;;;;3.39;83.80;99551.41;4979439;28;20046;-72
2023/12/17 01:05:25;;;;;;;1.05;1.05;;;;;;;3.37;83.94;99556.78;4979582;28;20075;-72
2023/12/17 01:07:54;;;;;;;0.90;0.90;;;;;;;3.38;83.86;99557.63;4977906;28;20054;-71
2023/12/17 01:10:21;;;;;;;1.13;1.13;;;;;;;3.36;83.63;99555.09;4980914;28;20050;-70
2023/12/17 01:12:49;;;;;;;1.13;1.13;;;;;;;3.32;83.85;99561.53;4978538;28;20050;-74
2023/12/17 01:15:17;;;;;;;1.15;1.15;;;;;;;3.31;83.60;99568.59;4982345;28;20051;-71
2023/12/17 01:17:44;;;;;;;1.25;1.25;;;;;;;3.35;83.50;99568.38;4978754;28;20039;-72
2023/12/17 01:20:13;;;;;;;0.93;0.93;;;;;;;3.30;83.51;99552.84;4979360;28;20117;-72
2023/12/17 01:22:40;;;;;;;0.80;0.80;;;;;;;3.26;83.49;99554.84;4985065;28;20414;-72
2023/12/17 01:25:09;;;;;;;1.02;1.02;;;;;;;3.25;83.24;99550.50;4975690;28;20133;-73
2023/12/17 01:27:37;;;;;;;0.98;0.98;;;;;;;3.21;83.14;99554.31;4980637;28;20058;-71
2023/12/17 01:30:06;;;;;;;0.85;0.85;;;;;;;3.21;83.18;99548.19;4981862;28;20081;-71
2023/12/17 01:32:34;;;;;;;1.25;1.25;;;;;;;3.19;83.07;99543.00;4982969;28;20049;-71
2023/12/17 01:35:04;;;;;;;0.93;0.93;;;;;;;3.18;83.03;99557.13;4978059;28;20050;-71
2023/12/17 01:37:32;;;;;;;1.00;1.00;;;;;;;3.19;82.69;99561.47;4982971;28;20519;-72
2023/12/17 01:39:59;;;;;;;1.27;1.27;;;;;;;3.19;82.61;99564.09;4986850;28;20043;-72
2023/12/17 01:42:28;;;;;;;1.65;1.65;;;;;;;3.18;82.70;99562.41;4978628;28;20045;-71
2023/12/17 01:44:56;;;;;;;0.60;0.60;;;;;;;3.17;82.58;99559.88;4992033;28;20619;-72
2023/12/17 01:47:24;;;;;;;1.02;1.02;;;;;;;3.17;82.42;99552.81;4987814;28;20065;-71
2023/12/17 01:49:52;;;;;;;0.75;0.75;;;;;;;3.15;82.49;99553.84;4991300;28;20038;-73
2023/12/17 01:52:20;;;;;;;1.00;1.00;;;;;;;3.13;82.47;99555.72;4975762;28;20054;-71
2023/12/17 01:54:47;;;;;;;0.80;0.80;;;;;;;3.09;82.86;99555.09;4982060;28;20076;-71
2023/12/17 01:57:15;;;;;;;1.23;1.23;;;;;;;3.11;82.64;99560.28;4982640;28;20512;-72
2023/12/17 01:59:46;;;;;;;1.00;1.00;;;;;;;3.08;82.68;99561.31;4992961;28;20074;-72
2023/12/17 02:02:15;;;;;;;0.98;0.98;;;;;;;3.10;82.62;99562.06;4981714;28;20050;-72
2023/12/17 02:04:43;;;;;;;1.20;1.20;;;;;;;3.09;82.49;99554.25;4991437;28;20042;-72
2023/12/17 02:07:11;;;;;;;1.02;1.02;;;;;;;3.06;82.69;99544.75;4983359;28;20074;-72
2023/12/17 02:09:38;;;;;;;0.80;0.80;;;;;;;3.05;82.64;99534.28;4993699;28;20042;-73
2023/12/17 02:12:06;;;;;;;1.20;1.20;;;;;;;3.06;82.69;99535.97;4985523;28;20052;-72
2023/12/17 02:14:34;;;;;;;1.10;1.10;;;;;;;3.02;82.79;99540.59;4983607;28;20061;-71
2023/12/17 02:17:03;;;;;;;0.88;0.88;;;;;;;3.01;82.78;99538.09;4982783;28;20047;-70
2023/12/17 02:19:31;;;;;;;0.70;0.70;;;;;;;2.98;82.95;99541.75;4980594;28;20038;-71
2023/12/17 02:21:59;;;;;;;1.02;1.02;;;;;;;3.03;82.79;99542.28;4989254;28;20103;-71
2023/12/17 02:24:28;;;;;;;1.15;1.15;;;;;;;3.06;82.75;99547.38;4989392;28;20391;-71
2023/12/17 02:26:57;;;;;;;0.82;0.82;;;;;;;3.02;82.83;99545.03;4982755;28;20038;-71
2023/12/17 02:29:25;;;;;;;1.30;1.30;;;;;;;3.00;82.95;99547.78;4987277;28;20113;-71
2023/12/17 02:31:52;;;;;;;1.00;1.00;;;;;;;3.05;82.94;99548.31;4982791;28;20452;-71
2023/12/17 02:34:20;;;;;;;1.15;1.15;;;;;;;3.06;82.71;99547.38;4980925;28;20142;-71
2023/12/17 02:36:48;;;;;;;1.50;1.50;;;;;;;3.03;82.89;99547.56;4984675;28;20046;-71
2023/12/17 02:39:15;;;;;;;0.93;0.93;;;;;;;3.02;82.97;99551.16;4980876;28;20192;-71
2023/12/17 02:41:44;;;;;;;0.80;0.80;;;;;;;3.02;82.87;99545.03;4981687;28;20050;-73
2023/12/17 02:44:12;;;;;;;0.95;0.95;;;;;;;3.03;82.97;99541.44;4981607;28;20138;-71
2023/12/17 02:46:39;;;;;;;1.23;1.23;;;;;;;3.01;82.98;99538.91;4986492;28;20046;-72
2023/12/17 02:49:07;;;;;;;0.98;0.98;;;;;;;2.98;83.19;99535.63;4976471;28;20129;-71
2023/12/17 02:51:35;;;;;;;0.98;0.98;;;;;;;3.00;83.10;99542.50;4991224;28;20121;-71
2023/12/17 02:54:02;;;;;;;1.35;1.35;;;;;;;3.03;83.01;99541.44;4984688;28;20046;-71
2023/12/17 02:56:30;;;;;;;1.02;1.02;;;;;;;3.02;82.95;99537.09;4988024;28;20515;-71
2023/12/17 02:58:59;;;;;;;0.75;0.75;;;;;;;3.02;83.14;99537.97;4985391;28;20053;-71
2023/12/17 03:01:26;;;;;;;1.20;1.20;;;;;;;2.99;83.23;99538.19;4989589;28;20110;-71
2023/12/17 03:03:54;;;;;;;0.98;0.98;;;;;;;2.99;83.35;99535.53;4991558;28;20054;-71
2023/12/17 03:06:22;;;;;;;1.20;1.20;;;;;;;3.01;83.42;99523.06;4988978;28;20051;-72
2023/12/17 03:08:50;;;;;;;0.43;0.43;;;;;;;2.95;83.58;99511.16;4986134;28;20427;-71
2023/12/17 03:11:17;;;;;;;1.17;1.17;;;;;;;2.97;83.65;99508.41;4982911;28;20077;-71
2023/12/17 03:13:45;;;;;;;1.05;1.05;;;;;;;2.94;83.82;99505.97;4987429;28;20212;-71
2023/12/17 03:16:14;;;;;;;1.00;1.00;;;;;;;2.92;84.09;99506.06;4989388;28;20077;-72
2023/12/17 03:18:41;;;;;;;0.52;0.52;;;;;;;2.93;84.18;99513.03;4982088;28;20440;-70
2023/12/17 03:21:09;;;;;;;1.10;1.10;;;;;;;2.98;84.23;99509.25;4991932;28;20499;-71
2023/12/17 03:23:37;;;;;;;0.80;0.80;;;;;;;2.94;84.17;99514.72;4988896;28;20045;-71
2023/12/17 03:26:05;;;;;;;0.95;0.95;;;;;;;2.96;84.39;99512.00;4984202;28;20065;-71
2023/12/17 03:28:33;;;;;;;1.20;1.20;;;;;;;2.97;84.27;99513.69;4976370;28;20050;-72
2023/12/17 03:31:00;;;;;;;1.15;1.15;;;;;;;2.98;84.15;99506.63;4987781;28;20134;-74
2023/12/17 03:33:30;;;;;;;0.70;0.70;;;;;;;3.01;83.91;99509.88;4980811;28;20057;-71
2023/12/17 03:35:57;;;;;;;0.90;0.90;;;;;;;3.05;83.86;99508.75;4988341;28;20489;-72
2023/12/17 03:38:25;;;;;;;1.60;1.60;;;;;;;3.06;83.57;99512.25;4988589;28;20057;-72
2023/12/17 03:40:53;;;;;;;1.30;1.30;;;;;;;3.03;83.83;99504.53;4985553;28;20442;-71
2023/12/17 03:43:20;;;;;;;0.73;0.73;;;;;;;3.02;84.04;99497.56;4985539;28;20158;-70
2023/12/17 03:45:48;;;;;;;0.52;0.52;;;;;;;3.02;83.95;99498.41;4974636;28;20396;-71
2023/12/17 03:48:16;;;;;;;1.23;1.13;;;;;;;3.12;83.72;99493.38;4970724;28;20499;-71
2023/12/17 03:50:45;;;;;;;1.13;1.13;;;;;;;3.12;83.54;99494.22;4985959;28;20046;-71
2023/12/17 03:53:12;;;;;;;0.80;0.80;;;;;;;3.15;83.37;99487.91;4984385;28;20132;-71
2023/12/17 03:55:40;;;;;;;1.08;1.08;;;;;;;3.09;83.63;99486.53;4984332;28;20049;-70
2023/12/17 03:58:07;;;;;;;1.27;1.27;;;;;;;3.08;83.80;99471.63;4983126;28;20060;-72
2023/12/17 04:00:36;;;;;;;1.10;1.10;;;;;;;3.09;83.75;99477.75;4990536;28;20124;-71
2023/12/17 04:03:04;;;;;;;1.10;1.10;;;;;;;3.13;83.58;99476.59;4982280;28;20121;-71
2023/12/17 04:05:31;;;;;;;0.45;0.45;;;;;;;3.11;83.69;99479.34;4982539;28;20407;-71
2023/12/17 04:08:00;;;;;;;0.38;0.38;;;;;;;3.12;83.60;99482.81;4983776;28;20500;-71
2023/12/17 04:10:28;;;;;;;1.13;1.13;;;;;;;3.17;83.46;99481.59;4986960;28;20485;-71
2023/12/17 04:12:55;;;;;;;1.38;1.38;;;;;;;3.13;83.35;99477.44;4982973;28;20051;-72
2023/12/17 04:15:23;;;;;;;1.50;1.50;;;;;;;3.11;83.56;99476.72;4988741;28;20050;-71
2023/12/17 04:17:51;;;;;;;1.10;1.10;;;;;;;3.11;83.51;99476.72;4983196;28;20077;-71
2023/12/17 04:20:19;;;;;;;1.10;1.10;;;;;;;3.08;83.64;99470.78;4981665;28;20046;-71
2023/12/17 04:22:46;;;;;;;1.33;1.23;;;;;;;3.06;83.73;99470.03;4991740;28;20053;-71
2023/12/17 04:25:15;;;;;;;1.00;1.00;;;;;;;3.06;83.70;99473.53;4972105;28;20499;-71
2023/12/17 04:27:43;;;;;;;0.93;0.93;;;;;;;3.09;83.99;99473.34;4970766;28;20047;-73
2023/12/17 04:30:11;;;;;;;1.92;1.92;;;;;;;3.08;83.46;99466.38;4980455;28;20047;-73
2023/12/17 04:32:39;;;;;;;1.00;1.00;;;;;;;3.05;83.70;99466.56;4985405;28;20081;-70
2023/12/17 04:35:08;;;;;;;0.93;0.93;;;;;;;3.04;83.55;99474.56;4975213;28;20118;-72
2023/12/17 04:37:35;;;;;;;0.95;0.95;;;;;;;3.03;83.61;99476.34;4985432;28;20044;-71
2023/12/17 04:40:04;;;;;;;1.13;1.13;;;;;;;3.02;83.69;99468.53;4977704;28;20419;-71
2023/12/17 04:42:33;;;;;;;0.95;0.95;;;;;;;2.98;83.90;99465.28;4981875;28;20043;-71
2023/12/17 04:45:02;;;;;;;1.00;1.00;;;;;;;2.96;83.89;99472.44;4979593;28;20050;-70
2023/12/17 04:47:30;;;;;;;1.00;1.00;;;;;;;3.00;83.76;99463.41;4975357;28;20522;-70
2023/12/17 04:49:58;;;;;;;0.75;0.75;;;;;;;3.01;83.59;99458.97;4981308;28;20054;-72
2023/12/17 04:52:26;;;;;;;0.93;0.93;;;;;;;2.97;84.18;99468.84;4982203;28;20049;-70
2023/12/17 04:54:53;;;;;;;0.60;0.60;;;;;;;2.97;83.90;99463.59;4978362;28;20042;-72
2023/12/17 04:57:21;;;;;;;0.38;0.38;;;;;;;2.93;84.00;99444.47;4982663;28;20416;-73
2023/12/17 04:59:50;;;;;;;0.93;0.93;;;;;;;2.94;83.96;99446.16;4981356;28;20053;-73
2023/12/17 05:02:17;;;;;;;1.05;1.05;;;;;;;2.93;83.87;99449.75;4983989;28;20070;-73
2023/12/17 05:04:45;;;;;;;1.10;1.10;;;;;;;2.93;84.05;99446.25;5013595;23;20046;-71
2023/12/17 05:07:12;;;;;;;1.05;1.05;;;;;;;2.93;83.82;99444.47;5010169;28;20054;-72
2023/12/17 05:09:40;;;;;;;0.30;0.30;;;;;;;2.90;84.14;99451.75;4998076;28;20464;-71
2023/12/17 05:12:07;;;;;;;1.05;1.05;;;;;;;2.86;84.38;99452.88;5004833;28;20039;-71
2023/12/17 05:14:35;;;;;;;1.17;1.17;;;;;;;2.84;84.44;99457.41;5009554;28;20046;-72
2023/12/17 05:17:04;;;;;;;1.23;1.23;;;;;;;2.82;84.54;99457.50;4992498;28;20054;-72
2023/12/17 05:19:32;;;;;;;0.80;0.80;;;;;;;2.86;84.39;99463.44;5002949;28;20073;-71
2023/12/17 05:22:00;;;;;;;1.33;1.33;;;;;;;2.85;84.50;99464.38;4998841;28;20492;-71
2023/12/17 05:24:27;;;;;;;0.80;0.80;;;;;;;2.81;84.56;99450.53;4992223;28;20052;-72
2023/12/17 05:26:55;;;;;;;1.20;1.20;;;;;;;2.83;84.70;99461.84;4994305;28;20093;-71
2023/12/17 05:29:22;;;;;;;1.05;1.05;;;;;;;2.85;84.64;99456.47;4985910;28;20049;-71
2023/12/17 05:31:50;;;;;;;1.13;1.13;;;;;;;2.85;84.32;99456.47;4991647;28;20146;-69
2023/12/17 05:34:19;;;;;;;1.27;1.27;;;;;;;2.81;84.69;99453.19;4985721;28;20114;-69
2023/12/17 05:36:47;;;;;;;1.05;1.05;;;;;;;2.83;84.59;99459.19;4999572;28;20041;-71
2023/12/17 05:39:16;;;;;;;1.30;1.30;;;;;;;2.79;84.80;99441.91;4987304;28;20108;-71
2023/12/17 05:41:44;;;;;;;1.23;1.23;;;;;;;2.81;84.68;99444.41;4985439;28;20046;-71
2023/12/17 05:44:12;;;;;;;1.15;1.15;;;;;;;2.78;84.83;99452.56;4992075;28;20074;-71
2023/12/17 05:46:40;;;;;;;1.13;1.13;;;;;;;2.78;84.92;99447.28;4989188;28;20172;-70
2023/12/17 05:49:07;;;;;;;0.88;0.88;;;;;;;2.75;85.04;99450.94;4992815;28;20069;-71
2023/12/17 05:51:36;;;;;;;1.58;1.48;;;;;;;2.73;85.09;99455.47;4990089;28;20133;-71
2023/12/17 05:54:07;;;;;;;1.25;1.25;;;;;;;2.71;85.25;99448.59;4989268;28;20061;-71
2023/12/17 05:56:39;;;;;;;0.95;0.95;;;;;;;2.74;85.10;99448.41;4990807;28;20058;-70
2023/12/17 05:59:06;;;;;;;1.05;1.05;;;;;;;2.78;85.10;99455.19;4990831;28;20133;-71
2023/12/17 06:01:34;;;;;;;0.80;0.80;;;;;;;2.72;85.23;99448.50;4986843;28;20038;-71
2023/12/17 06:04:02;;;;;;;1.17;1.17;;;;;;;2.69;85.41;99448.72;4993566;28;20492;-71
2023/12/17 06:06:30;;;;;;;1.02;1.02;;;;;;;2.72;85.30;99453.78;4992642;28;20050;-72
2023/12/17 06:08:59;;;;;;;0.95;0.95;;;;;;;2.78;85.09;99448.13;4993957;28;20042;-71
2023/12/17 06:11:26;;;;;;;1.77;1.77;;;;;;;2.76;85.22;99449.16;4998456;28;20038;-71
2023/12/17 06:13:54;;;;;;;0.98;0.98;;;;;;;2.71;85.45;99449.44;4992937;28;20547;-72
2023/12/17 06:16:21;;;;;;;1.05;1.05;;;;;;;2.73;85.54;99452.00;4991076;28;20039;-70
2023/12/17 06:18:50;;;;;;;0.95;0.95;;;;;;;2.72;85.60;99452.94;4993334;28;20046;-70
2023/12/17 06:21:22;;;;;;;1.13;1.13;;;;;;;2.69;85.80;99459.28;4988511;28;20089;-70
2023/12/17 06:23:51;;;;;;;1.15;1.15;;;;;;;2.74;85.21;99454.53;4990253;28;20088;-73
2023/12/17 06:26:20;;;;;;;1.08;1.08;;;;;;;2.77;85.51;99456.13;4993348;28;20038;-71
2023/12/17 06:28:48;;;;;;;0.98;0.98;;;;;;;2.77;85.54;99456.97;4987454;28;20126;-71
2023/12/17 06:31:15;;;;;;;0.90;0.90;;;;;;;2.72;85.54;99451.16;4987429;28;20050;-72
2023/12/17 06:33:43;;;;;;;0.90;0.90;;;;;;;2.70;85.48;99450.38;4995113;28;20516;-71
2023/12/17 06:36:11;;;;;;;1.60;1.60;;;;;;;2.71;85.81;99460.00;4988540;28;20089;-71
2023/12/17 06:38:39;;;;;;;1.42;1.42;;;;;;;2.75;85.77;99450.94;4992572;28;20038;-71
2023/12/17 06:41:08;;;;;;;1.40;1.40;;;;;;;2.78;85.63;99452.56;4991187;28;20491;-72
2023/12/17 06:43:37;;;;;;;0.95;0.95;;;;;;;2.76;85.70;99459.72;4990787;28;20056;-71
2023/12/17 06:46:06;;;;;;;1.35;1.35;;;;;;;2.83;85.32;99467.13;4990105;28;20043;-73
2023/12/17 06:48:34;;;;;;;1.13;1.13;;;;;;;2.83;85.48;99469.75;4987038;28;20047;-72
2023/12/17 06:51:02;;;;;;;2.00;2.00;;;;;;;2.85;85.49;99456.47;4991745;28;20121;-72
2023/12/17 06:53:30;;;;;;;1.00;1.00;;;;;;;2.83;85.23;99458.34;4987403;28;20125;-72
2023/12/17 06:55:58;;;;;;;0.82;0.82;;;;;;;2.79;85.60;99463.00;4984620;28;20047;-71
2023/12/17 06:58:25;;;;;;;1.17;1.17;;;;;;;2.78;85.68;99457.81;4987513;28;20049;-71
2023/12/17 07:00:54;;;;;;;1.02;1.02;;;;;;;2.79;85.72;99454.25;4988509;28;20056;-71
2023/12/17 07:03:22;;;;;;;0.77;0.77;;;;;;;2.76;85.80;99449.16;4988362;28;20046;-72
2023/12/17 07:05:49;;;;;;;1.10;1.10;;;;;;;2.76;86.13;99455.28;4986116;28;20050;-72
2023/12/17 07:08:17;;;;;;;1.17;1.17;;;;;;;2.81;85.73;99455.81;4986439;28;20043;-72
2023/12/17 07:10:45;;;;;;;0.20;0.20;;;;;;;2.76;85.94;99460.56;4979511;28;20485;-71
2023/12/17 07:13:13;;;;;;;1.10;1.10;;;;;;;2.76;85.79;99460.56;4979315;28;20053;-73
2023/12/17 07:15:40;;;;;;;1.20;1.20;;;;;;;2.75;86.09;99469.41;4982221;28;20128;-72
2023/12/17 07:18:09;;;;;;;1.10;1.10;;;;;;;2.77;85.76;99456.97;4982752;28;20047;-74
2023/12/17 07:20:37;;;;;;;1.13;1.13;;;;;;;2.75;85.85;99468.56;4992110;28;20046;-72
2023/12/17 07:23:04;;;;;;;1.20;1.20;;;;;;;2.78;85.82;99453.41;4992507;28;20050;-72
2023/12/17 07:25:32;;;;;;;1.00;1.00;;;;;;;2.77;85.85;99462.25;4987102;28;20053;-72
2023/12/17 07:27:59;;;;;;;2.13;2.03;;;;;;;2.78;85.71;99463.09;4982166;28;20384;-72
2023/12/17 07:30:27;;;;;;;0.93;0.93;;;;;;;2.77;85.88;99477.22;4983392;28;20551;-70
2023/12/17 07:32:55;;;;;;;1.10;1.10;;;;;;;2.76;85.83;99473.75;4989965;28;20050;-70
2023/12/17 07:35:24;;;;;;;0.40;0.40;;;;;;;2.82;85.74;99483.03;4994347;28;20486;-72
2023/12/17 07:37:52;;;;;;;0.63;0.63;;;;;;;2.82;85.83;99489.16;4987188;28;20399;-71
2023/12/17 07:40:19;;;;;;;1.50;1.50;;;;;;;2.90;85.74;99484.25;4990637;28;20057;-70
2023/12/17 07:42:47;;;;;;;1.17;1.17;;;;;;;2.90;85.59;99497.44;4982798;28;20038;-70
2023/12/17 07:45:15;;;;;;;1.67;1.63;;;;;;;2.93;85.63;99499.00;4989359;28;20058;-72
2023/12/17 07:47:44;;;;;;;1.10;1.10;;;;;;;2.95;85.78;99503.25;4981509;28;20085;-71
2023/12/17 07:50:13;;;;;;;1.38;1.38;;;;;;;2.99;85.47;99505.69;4984878;28;20125;-70
2023/12/17 07:52:42;;;;;;;1.10;1.10;;;;;;;3.00;85.50;99508.22;5001945;28;20039;-73
2023/12/17 07:55:10;;;;;;;1.08;1.08;;;;;;;3.05;85.33;99505.28;4982082;28;20492;-70
2023/12/17 07:57:38;;;;;;;1.02;1.02;;;;;;;3.09;85.36;99504.13;4981202;28;20073;-70
2023/12/17 08:00:08;;;;;;;0.85;0.85;;;;;;;3.16;84.85;99508.06;4974052;28;20054;-72
2023/12/17 08:02:38;;;;;;;1.55;1.55;;;;;;;3.18;84.96;99512.28;4985629;28;20319;-70
2023/12/17 08:05:07;;;;;;;0.85;0.85;;;;;;;3.24;84.85;99517.16;4985385;28;20086;-70
2023/12/17 08:07:35;;;;;;;1.05;1.05;;;;;;;3.25;84.71;99521.47;4981208;28;20061;-74
2023/12/17 08:10:06;;;;;;;1.20;1.20;;;;;;;3.32;84.65;99527.22;4983823;28;20061;-71
2023/12/17 08:12:33;;;;;;;1.00;1.00;;;;;;;3.31;84.60;99531.66;4977031;28;20152;-71
2023/12/17 08:15:01;;;;;;;0.30;0.30;;;;;;;3.38;84.51;99533.88;4986962;28;20467;-72
2023/12/17 08:17:30;;;;;;;1.77;1.77;;;;;;;3.41;84.04;99526.63;4984592;28;20997;-72
2023/12/17 08:19:58;;;;;;;0.70;0.70;;;;;;;3.42;84.15;99548.56;4992074;28;20463;-72
2023/12/17 08:22:25;;;;;;;1.05;1.05;;;;;;;3.42;84.27;99541.50;4981432;28;20480;-72
2023/12/17 08:24:53;;;;;;;0.93;0.93;;;;;;;3.45;84.12;99545.72;4986728;28;20098;-72
2023/12/17 08:27:22;;;;;;;1.23;1.23;;;;;;;3.47;84.40;99552.59;4982400;28;20049;-71
2023/12/17 08:29:50;;;;;;;1.17;1.17;;;;;;;3.52;84.08;99541.72;4987501;28;20046;-72
2023/12/17 08:32:18;;;;;;;1.05;1.05;;;;;;;3.52;84.14;99545.22;4987977;28;20451;-72
2023/12/17 08:34:47;;;;;;;0.95;0.95;;;;;;;3.57;84.06;99548.38;4989237;28;20046;-72
2023/12/17 08:37:15;;;;;;;0.98;0.98;;;;;;;3.56;84.06;99548.47;4990048;28;20043;-72
2023/12/17 08:39:43;;;;;;;1.25;1.25;;;;;;;3.61;84.02;99554.31;4991211;28;20058;-72
2023/12/17 08:42:11;;;;;;;0.93;0.93;;;;;;;3.60;84.11;99552.63;4987906;28;20050;-74
2023/12/17 08:44:40;;;;;;;1.15;1.15;;;;;;;3.58;84.28;99547.44;4996655;28;20046;-72
2023/12/17 08:47:07;;;;;;;0.93;0.93;;;;;;;3.65;83.92;99534.66;4972668;28;20140;-72
2023/12/17 08:49:35;;;;;;;0.88;0.88;;;;;;;3.66;83.77;99536.34;4985031;28;20053;-72
2023/12/17 08:52:02;;;;;;;1.05;1.05;;;;;;;3.68;83.88;99527.38;4985662;28;20046;-72
2023/12/17 08:54:30;;;;;;;1.08;1.08;;;;;;;3.71;83.75;99538.69;4983748;28;20046;-72
2023/12/17 08:56:58;;;;;;;0.32;0.32;;;;;;;3.72;83.78;99528.03;4985188;28;20770;-72
2023/12/17 08:59:25;;;;;;;0.77;0.77;;;;;;;3.78;83.65;99538.19;4987909;28;20046;-72
2023/12/17 09:01:54;;;;;;;1.10;1.10;;;;;;;3.78;83.42;99538.19;4995799;28;20105;-72
2023/12/17 09:04:22;;;;;;;0.50;0.50;;;;;;;3.87;83.28;99529.63;4985450;28;20392;-72
2023/12/17 09:06:50;;;;;;;1.23;1.23;;;;;;;3.85;83.37;99534.16;4995313;28;20061;-71
2023/12/17 09:09:17;;;;;;;1.08;1.08;;;;;;;3.89;83.19;99530.38;4987923;28;20046;-72
2023/12/17 09:11:45;;;;;;;1.15;1.15;;;;;;;3.95;83.03;99529.94;4986141;28;20440;-72
2023/12/17 09:14:12;;;;;;;0.90;0.90;;;;;;;3.94;82.65;99527.44;4988752;28;20039;-72
2023/12/17 09:16:40;;;;;;;0.95;0.95;;;;;;;3.99;82.53;99534.06;4985767;28;20145;-72
2023/12/17 09:19:09;;;;;;;0.77;0.77;;;;;;;4.02;82.34;99533.88;4990571;28;20533;-71
2023/12/17 09:21:37;;;;;;;0.90;0.90;;;;;;;4.08;82.17;99522.03;4993826;28;20053;-72
2023/12/17 09:24:05;;;;;;;1.20;1.20;;;;;;;4.12;81.88;99525.31;4993133;28;20133;-71
2023/12/17 09:26:33;;;;;;;1.17;1.17;;;;;;;4.13;81.87;99516.44;4989357;28;20096;-71
2023/12/17 09:29:00;;;;;;;0.47;0.47;;;;;;;4.11;81.63;99511.25;4988506;28;20463;-71
2023/12/17 09:31:28;;;;;;;1.10;1.10;;;;;;;4.07;81.67;99497.41;4991372;28;20042;-71
2023/12/17 09:33:56;;;;;;;1.15;1.15;;;;;;;4.10;81.62;99508.72;4990073;28;20035;-71
2023/12/17 09:36:26;;;;;;;0.80;0.80;;;;;;;4.12;81.75;99485.69;4994234;28;20038;-72
2023/12/17 09:38:54;;;;;;;1.05;1.05;;;;;;;4.14;81.86;99471.41;4995332;28;20045;-71
2023/12/17 09:41:23;;;;;;;1.10;1.10;;;;;;;4.21;81.52;99469.19;4986232;28;20068;-71
2023/12/17 09:43:51;;;;;;;0.82;0.82;;;;;;;4.27;81.58;99466.09;4975141;28;20050;-72
2023/12/17 09:46:20;;;;;;;1.20;1.20;;;;;;;4.30;81.52;99481.72;4980234;28;20496;-73
2023/12/17 09:48:48;;;;;;;1.20;1.20;;;;;;;4.35;81.19;99490.19;4977686;28;20046;-72
2023/12/17 09:51:16;;;;;;;0.90;0.90;;;;;;;4.44;81.12;99489.53;4979498;28;20552;-74
2023/12/17 09:53:45;;;;;;;0.95;0.95;;;;;;;4.51;80.93;99488.13;4987644;28;20046;-72
2023/12/17 09:56:12;;;;;;;0.90;0.90;;;;;;;4.59;80.58;99498.16;4989339;28;20113;-72
2023/12/17 09:58:40;;;;;;;0.90;0.90;;;;;;;4.64;79.97;99480.19;4991252;28;20046;-71
2023/12/17 10:01:08;;;;;;;1.10;1.10;;;;;;;4.65;79.99;99474.78;4990638;28;20047;-72
2023/12/17 10:03:36;;;;;;;0.93;0.93;;;;;;;4.70;79.73;99475.28;4990746;28;20048;-72
2023/12/17 10:06:04;;;;;;;1.63;1.63;;;;;;;4.72;79.32;99473.38;4992028;28;20048;-73
2023/12/17 10:08:33;;;;;;;1.08;1.08;;;;;;;4.76;79.25;99472.22;4990716;28;20046;-73
2023/12/17 10:11:02;;;;;;;0.93;0.93;;;;;;;4.81;79.05;99458.63;4989638;28;20057;-73
2023/12/17 10:13:30;;;;;;;0.98;0.98;;;;;;;4.85;78.94;99467.19;4988970;28;20045;-72
2023/12/17 10:15:57;;;;;;;1.13;1.08;;;;;;;4.88;78.39;99457.22;4991755;28;20117;-71
2023/12/17 10:18:25;;;;;;;1.15;1.15;;;;;;;4.94;78.50;99467.38;4989943;28;20048;-71
2023/12/17 10:20:53;;;;;;;1.10;1.00;;;;;;;5.02;78.46;99466.78;4990970;28;20046;-72
2023/12/17 10:23:21;;;;;;;0.98;0.98;;;;;;;5.09;77.56;99454.78;4990621;28;20506;-73
2023/12/17 10:25:59;;;;;;;0.98;0.98;;;;;;;5.10;77.52;99459.97;4980474;28;20046;-72
2023/12/17 10:28:28;;;;;;;0.32;0.32;;;;;;;5.16;77.19;99464.81;4972605;28;20424;-72
2023/12/17 10:30:57;;;;;;;2.08;2.03;;;;;;;5.21;77.25;99459.16;4992017;28;20426;-71
2023/12/17 10:33:26;;;;;;;1.10;1.10;;;;;;;5.27;76.76;99457.88;4992415;28;20053;-72
2023/12/17 10:35:54;;;;;;;0.95;0.95;;;;;;;5.31;76.44;99451.38;4990300;28;20079;-72
2023/12/17 10:38:23;;;;;;;0.85;0.85;;;;;;;5.33;76.30;99445.03;4992708;28;20042;-72
2023/12/17 10:40:51;;;;;;;0.93;0.93;;;;;;;5.36;76.30;99451.91;4984611;28;20042;-74
2023/12/17 10:43:18;;;;;;;1.02;1.02;;;;;;;5.41;76.24;99441.78;4985397;28;20077;-73
2023/12/17 10:45:48;;;;;;;1.00;1.00;;;;;;;5.44;75.82;99437.09;4988006;28;20053;-72
2023/12/17 10:48:16;;;;;;;1.23;1.23;;;;;;;5.50;75.51;99433.16;4989901;28;20069;-72
2023/12/17 10:50:45;;;;;;;1.27;1.27;;;;;;;5.52;75.22;99432.06;4988610;28;20061;-72
2023/12/17 10:53:13;;;;;;;0.75;0.75;;;;;;;5.61;75.19;99432.31;4992437;28;20043;-71
2023/12/17 10:55:40;;;;;;;0.85;0.85;;;;;;;5.63;75.18;99407.41;4994546;28;20044;-71
2023/12/17 10:58:14;;;;;;;1.05;1.05;;;;;;;5.68;75.27;99425.59;4987576;28;20061;-71
2023/12/17 11:00:42;;;;;;;0.95;0.95;;;;;;;5.73;75.01;99437.53;4975165;28;20057;-72
2023/12/17 11:03:13;;;;;;;0.88;0.88;;;;;;;5.80;74.77;99427.31;4985018;28;20121;-72
2023/12/17 11:05:54;;;;;;;0.85;0.85;;;;;;;5.80;74.86;99419.38;5019585;23;20418;-73
2023/12/17 11:08:23;;;;;;;1.15;1.15;;;;;;;5.88;74.68;99420.47;5010614;28;20046;-73
2023/12/17 11:10:52;;;;;;;0.90;0.90;;;;;;;5.96;74.40;99406.63;5000210;28;20042;-73
2023/12/17 11:13:23;;;;;;;1.15;1.15;;;;;;;6.00;74.19;99408.06;5004812;28;20042;-73
2023/12/17 11:15:52;;;;;;;0.95;0.95;;;;;;;6.01;74.25;99412.41;5009681;28;20096;-73
2023/12/17 11:18:23;;;;;;;0.98;0.98;;;;;;;6.08;74.48;99408.31;5015105;28;20049;-74
2023/12/17 11:20:52;;;;;;;1.10;1.10;;;;;;;6.19;73.65;99397.69;5007313;28;20042;-73
2023/12/17 11:23:21;;;;;;;0.90;0.90;;;;;;;6.22;73.63;99394.81;4995277;28;20202;-73
2023/12/17 11:25:48;;;;;;;1.00;1.00;;;;;;;6.30;73.59;99391.53;5005186;28;20042;-73
2023/12/17 11:28:21;;;;;;;1.05;1.05;;;;;;;6.39;73.20;99392.59;5013049;28;20046;-73
2023/12/17 11:30:49;;;;;;;0.82;0.82;;;;;;;6.44;73.29;99385.94;5013019;28;20034;-70
2023/12/17 11:33:17;;;;;;;1.17;1.17;;;;;;;6.47;73.66;99388.34;5016148;28;20042;-71
2023/12/17 11:35:47;;;;;;;0.75;0.75;;;;;;;6.53;73.04;99384.38;5010421;28;20042;-71
2023/12/17 11:38:15;;;;;;;0.80;0.80;;;;;;;6.60;72.98;99382.91;5008295;28;20537;-71
2023/12/17 11:40:42;;;;;;;0.70;0.70;;;;;;;6.70;73.27;99377.69;5003565;28;20096;-73
2023/12/17 11:43:10;;;;;;;1.15;1.15;;;;;;;6.85;72.61;99381.75;5014426;28;20049;-72
2023/12/17 11:45:41;;;;;;;0.85;0.85;;;;;;;6.97;72.18;99380.69;5016891;28;20061;-73